createdAt,value
2019-02-05T00:01:34.082Z,98767.00
2019-02-05T00:05:56.558Z,98777.00
2019-02-05T00:10:17.281Z,98788.00
2019-02-05T00:14:38.016Z,98779.00
2019-02-05T00:18:58.745Z,98782.00
2019-02-05T00:23:19.482Z,98782.00
2019-02-05T00:27:40.347Z,98782.00
2019-02-05T00:31:41.218Z,98787.00
2019-02-05T00:35:42.157Z,98788.00
2019-02-05T00:40:24.684Z,98792.00
2019-02-05T00:44:39.071Z,98793.00
2019-02-05T00:48:53.876Z,98774.00
2019-02-05T00:53:08.059Z,98759.00
2019-02-05T00:57:22.599Z,98775.00
2019-02-05T01:01:37.207Z,98756.00
2019-02-05T01:05:51.620Z,98760.00
2019-02-05T01:10:06.195Z,98767.00
2019-02-05T01:14:20.948Z,98777.00
2019-02-05T01:18:22.039Z,98773.00
2019-02-05T01:22:42.870Z,98761.00
2019-02-05T01:27:03.617Z,98755.00
2019-02-05T01:31:24.452Z,98761.00
2019-02-05T01:35:45.204Z,98750.00
2019-02-05T01:40:27.114Z,98756.00
2019-02-05T01:44:47.870Z,98745.00
2019-02-05T01:49:09.164Z,98740.00
2019-02-05T01:53:29.996Z,98729.00
2019-02-05T01:57:50.940Z,98721.00
2019-02-05T02:02:11.786Z,98729.00
2019-02-05T02:06:32.615Z,98745.00
2019-02-05T02:10:53.464Z,98732.00
2019-02-05T02:15:15.913Z,98743.00
2019-02-05T02:24:13.514Z,98738.00
2019-02-05T02:28:34.328Z,98751.00
2019-02-05T02:32:35.333Z,98742.00
2019-02-05T02:36:56.159Z,98740.00
2019-02-05T02:41:10.756Z,98742.00
2019-02-05T02:45:25.388Z,98753.00
2019-02-05T02:49:39.718Z,98734.00
2019-02-05T02:53:54.503Z,98740.00
2019-02-05T02:58:09.048Z,98738.00
2019-02-05T03:02:23.443Z,98743.00
2019-02-05T03:06:37.785Z,98745.00
2019-02-05T03:10:52.455Z,98740.00
2019-02-05T03:15:07.114Z,98737.00
2019-02-05T03:19:21.424Z,98737.00
2019-02-05T03:23:35.966Z,98727.00
2019-02-05T03:27:53.510Z,98722.00
2019-02-05T03:32:06.947Z,98730.00
2019-02-05T03:36:21.358Z,98725.00
2019-02-05T03:40:35.882Z,98734.00
2019-02-05T03:44:50.569Z,98735.00
2019-02-05T03:49:05.286Z,98738.00
2019-02-05T03:53:19.924Z,98724.00
2019-02-05T03:58:02.533Z,98733.00
2019-02-05T04:02:45.170Z,98736.00
2019-02-05T04:07:25.883Z,98742.00
2019-02-05T04:12:08.400Z,98732.00
2019-02-05T04:16:49.026Z,98743.00
2019-02-05T04:21:29.728Z,98739.00
2019-02-05T04:26:12.352Z,98745.00
2019-02-05T04:30:53.267Z,98752.00
2019-02-05T04:35:35.770Z,98752.00
2019-02-05T04:40:16.393Z,98751.00
2019-02-05T04:44:30.664Z,98741.00
2019-02-05T04:48:45.129Z,98746.00
2019-02-05T04:52:59.659Z,98740.00
2019-02-05T04:57:14.398Z,98746.00
2019-02-05T05:01:29.014Z,98745.00
2019-02-05T05:05:43.493Z,98749.00
2019-02-05T05:09:58.289Z,98749.00
2019-02-05T05:14:12.868Z,98748.00
2019-02-05T05:18:27.423Z,98744.00
2019-02-05T05:22:42.054Z,98754.00
2019-02-05T05:26:43.335Z,98748.00
2019-02-05T05:31:04.193Z,98746.00
2019-02-05T05:35:25.109Z,98749.00
2019-02-05T05:39:45.949Z,98757.00
2019-02-05T05:44:00.609Z,98759.00
2019-02-05T05:48:15.385Z,98757.00
2019-02-05T05:52:30.168Z,98768.00
2019-02-05T05:56:44.996Z,98771.00
2019-02-05T06:00:58.882Z,98776.00
2019-02-05T06:05:13.128Z,98773.00
2019-02-05T06:09:27.767Z,98784.00
2019-02-05T06:13:42.532Z,98777.00
2019-02-05T06:17:57.087Z,98777.00
2019-02-05T06:22:11.764Z,98782.00
2019-02-05T06:26:26.418Z,98785.00
2019-02-05T06:30:41.062Z,98786.00
2019-02-05T06:34:55.052Z,98793.00
2019-02-05T06:39:09.682Z,98785.00
2019-02-05T06:43:24.147Z,98782.00
2019-02-05T06:47:38.886Z,98795.00
2019-02-05T06:51:53.738Z,98804.00
2019-02-05T06:56:08.059Z,98802.00
2019-02-05T07:00:22.653Z,98798.00
2019-02-05T07:04:37.202Z,98811.00
2019-02-05T07:08:38.071Z,98808.00
2019-02-05T07:12:59.059Z,98814.00
2019-02-05T07:17:19.861Z,98813.00
2019-02-05T07:21:40.693Z,98821.00
2019-02-05T07:26:01.515Z,98820.00
2019-02-05T07:30:23.456Z,98826.00
2019-02-05T07:34:44.272Z,98836.00
2019-02-05T07:39:05.997Z,98833.00
2019-02-05T07:43:20.336Z,98841.00
2019-02-05T07:47:34.885Z,98852.00
2019-02-05T07:51:49.518Z,98860.00
2019-02-05T07:56:04.203Z,98860.00
2019-02-05T08:00:26.167Z,98851.00
2019-02-05T08:04:46.981Z,98856.00
2019-02-05T08:09:08.232Z,98874.00
2019-02-05T08:13:29.374Z,98855.00
2019-02-05T08:17:50.284Z,98867.00
2019-02-05T08:22:11.121Z,98872.00
2019-02-05T08:26:31.936Z,98871.00
2019-02-05T08:30:52.798Z,98878.00
2019-02-05T08:34:53.747Z,98885.00
2019-02-05T08:39:17.461Z,98883.00
2019-02-05T08:43:30.788Z,98878.00
2019-02-05T08:47:44.623Z,98881.00
2019-02-05T08:51:59.425Z,98885.00
2019-02-05T08:56:13.922Z,98880.00
2019-02-05T09:00:28.782Z,98886.00
2019-02-05T09:04:43.037Z,98887.00
2019-02-05T09:08:57.112Z,98894.00
2019-02-05T09:13:11.285Z,98899.00
2019-02-05T09:17:25.791Z,98904.00
2019-02-05T09:21:26.776Z,98917.00
2019-02-05T09:25:47.650Z,98914.00
2019-02-05T09:30:30.476Z,98921.00
2019-02-05T09:34:51.312Z,98926.00
2019-02-05T09:39:12.044Z,98926.00
2019-02-05T09:43:25.925Z,98931.00
2019-02-05T09:47:40.654Z,98930.00
2019-02-05T09:51:54.570Z,98938.00
2019-02-05T09:56:09.085Z,98930.00
2019-02-05T10:00:23.532Z,98946.00
2019-02-05T10:04:38.240Z,98954.00
2019-02-05T10:08:52.976Z,98955.00
2019-02-05T10:13:07.727Z,98964.00
2019-02-05T10:17:21.706Z,98964.00
2019-02-05T10:21:36.440Z,98962.00
2019-02-05T10:25:51.082Z,98956.00
2019-02-05T10:30:05.724Z,98964.00
2019-02-05T10:34:19.900Z,98974.00
2019-02-05T10:38:34.498Z,98975.00
2019-02-05T10:42:49.075Z,98974.00
2019-02-05T10:47:03.667Z,98977.00
2019-02-05T10:51:18.477Z,98978.00
2019-02-05T10:55:33.281Z,98990.00
2019-02-05T10:59:47.921Z,98978.00
2019-02-05T11:04:02.630Z,98986.00
2019-02-05T11:08:03.854Z,98980.00
2019-02-05T11:12:24.766Z,98968.00
2019-02-05T11:16:45.641Z,98959.00
2019-02-05T11:20:46.726Z,98972.00
2019-02-05T11:25:07.769Z,98965.00
2019-02-05T11:29:28.550Z,98952.00
2019-02-05T11:33:49.315Z,98948.00
2019-02-05T11:38:10.306Z,98944.00
2019-02-05T11:42:24.580Z,98950.00
2019-02-05T11:46:38.968Z,98948.00
2019-02-05T11:50:53.793Z,98956.00
2019-02-05T11:55:08.510Z,98962.00
2019-02-05T11:59:23.358Z,98957.00
2019-02-05T12:03:38.165Z,98968.00
2019-02-05T12:07:52.770Z,98962.00
2019-02-05T12:12:06.864Z,98958.00
2019-02-05T12:16:21.221Z,98958.00
2019-02-05T12:20:35.985Z,98958.00
2019-02-05T12:24:50.479Z,98949.00
2019-02-05T12:29:05.025Z,98947.00
2019-02-05T12:33:19.777Z,98954.00
2019-02-05T12:37:34.186Z,98955.00
2019-02-05T12:41:48.809Z,98955.00
2019-02-05T12:46:03.470Z,98956.00
2019-02-05T12:50:18.066Z,98954.00
2019-02-05T12:54:32.706Z,98949.00
2019-02-05T12:58:46.540Z,98926.00
2019-02-05T13:03:00.845Z,98934.00
2019-02-05T13:07:15.613Z,98923.00
2019-02-05T13:11:30.300Z,98918.00
2019-02-05T13:15:44.949Z,98923.00
2019-02-05T13:19:59.549Z,98926.00
2019-02-05T13:24:16.558Z,98927.00
2019-02-05T13:28:30.789Z,98926.00
2019-02-05T13:32:45.514Z,98928.00
2019-02-05T13:37:00.239Z,98931.00
2019-02-05T13:41:14.785Z,98928.00
2019-02-05T13:45:29.257Z,98925.00
2019-02-05T13:49:43.878Z,98922.00
2019-02-05T13:53:57.615Z,98936.00
2019-02-05T13:57:58.825Z,98926.00
2019-02-05T14:01:59.813Z,98924.00
2019-02-05T14:06:00.912Z,98922.00
2019-02-05T14:10:43.533Z,98923.00
2019-02-05T14:15:26.080Z,98927.00
2019-02-05T14:19:46.941Z,98924.00
2019-02-05T14:23:48.008Z,98922.00
2019-02-05T14:28:08.796Z,98929.00
2019-02-05T14:32:30.740Z,98928.00
2019-02-05T14:36:52.324Z,98929.00
2019-02-05T14:41:13.164Z,98926.00
2019-02-05T14:45:27.388Z,98927.00
2019-02-05T14:49:41.718Z,98937.00
2019-02-05T14:53:56.281Z,98936.00
2019-02-05T14:58:10.799Z,98942.00
2019-02-05T15:02:25.666Z,98944.00
2019-02-05T15:06:40.308Z,98947.00
2019-02-05T15:10:41.497Z,98946.00
2019-02-05T15:15:03.775Z,98958.00
2019-02-05T15:19:24.524Z,98954.00
2019-02-05T15:23:45.464Z,98957.00
2019-02-05T15:27:46.408Z,98961.00
2019-02-05T15:32:07.763Z,98964.00
2019-02-05T15:36:31.354Z,98963.00
2019-02-05T15:40:32.541Z,98958.00
2019-02-05T15:44:37.965Z,98991.00
2019-02-05T15:48:58.757Z,98956.00
2019-02-05T15:53:19.589Z,98952.00
2019-02-05T15:57:40.688Z,98959.00
2019-02-05T16:02:06.429Z,98967.00
2019-02-05T16:06:24.211Z,98962.00
2019-02-05T16:10:45.054Z,98955.00
2019-02-05T16:15:07.293Z,98958.00
2019-02-05T16:19:29.924Z,98958.00
2019-02-05T16:23:50.777Z,98960.00
2019-02-05T16:28:11.742Z,98961.00
2019-02-05T16:32:32.803Z,98969.00
2019-02-05T16:36:33.794Z,98963.00
2019-02-05T16:40:54.883Z,98968.00
2019-02-05T16:45:09.812Z,98976.00
2019-02-05T16:49:24.408Z,98982.00
2019-02-05T16:53:38.668Z,98981.00
2019-02-05T16:57:53.229Z,98973.00
2019-02-05T17:02:07.843Z,98975.00
2019-02-05T17:06:22.501Z,98971.00
2019-02-05T17:10:26.687Z,98974.00
2019-02-05T17:14:47.457Z,98981.00
2019-02-05T17:18:48.629Z,98978.00
2019-02-05T17:23:09.524Z,98974.00
2019-02-05T17:27:10.504Z,98984.00
2019-02-05T17:31:31.337Z,98985.00
2019-02-05T17:35:52.233Z,98967.00
2019-02-05T17:40:14.340Z,98985.00
2019-02-05T17:44:28.621Z,98990.00
2019-02-05T17:48:44.543Z,98987.00
2019-02-05T17:52:45.829Z,98979.00
2019-02-05T17:56:47.064Z,98982.00
2019-02-05T18:04:57.329Z,98989.00
2019-02-05T18:09:18.183Z,98997.00
2019-02-05T18:13:39.154Z,98984.00
2019-02-05T18:18:00.125Z,98998.00
2019-02-05T18:22:21.008Z,99002.00
2019-02-05T18:26:41.948Z,98990.00
2019-02-05T18:31:02.966Z,98990.00
2019-02-05T18:35:23.812Z,98978.00
2019-02-05T18:39:24.782Z,98984.00
2019-02-05T18:43:39.390Z,98973.00
2019-02-05T18:47:54.131Z,98989.00
2019-02-05T18:52:09.031Z,98980.00
2019-02-05T18:56:23.663Z,98977.00
2019-02-05T19:00:40.780Z,98983.00
2019-02-05T19:04:55.146Z,98982.00
2019-02-05T19:09:09.627Z,98974.00
2019-02-05T19:13:24.324Z,98976.00
2019-02-05T19:17:38.952Z,98986.00
2019-02-05T19:21:53.803Z,98974.00
2019-02-05T19:26:14.685Z,98975.00
2019-02-05T19:40:01.214Z,98972.00
2019-02-05T19:44:15.280Z,98963.00
2019-02-05T19:48:36.381Z,98970.00
2019-02-05T19:52:57.722Z,98967.00
2019-02-05T19:57:18.855Z,98959.00
2019-02-05T20:01:20.220Z,98973.00
2019-02-05T20:05:41.128Z,98962.00
2019-02-05T20:09:42.183Z,98950.00
2019-02-05T20:14:03.202Z,98955.00
2019-02-05T20:18:25.865Z,98949.00
2019-02-05T20:22:46.803Z,98952.00
2019-02-05T20:27:07.672Z,98957.00
2019-02-05T20:31:28.606Z,98966.00
2019-02-05T20:35:49.351Z,98975.00
2019-02-05T20:40:31.877Z,98970.00
2019-02-05T20:44:45.909Z,98959.00
2019-02-05T20:49:00.561Z,98973.00
2019-02-05T20:53:13.017Z,98969.00
2019-02-05T20:57:24.423Z,98968.00
2019-02-05T21:01:25.848Z,98986.00
2019-02-05T21:05:47.040Z,98982.00
2019-02-05T21:10:28.211Z,98975.00
2019-02-05T21:14:29.132Z,98976.00
2019-02-05T21:18:49.923Z,98975.00
2019-02-05T21:23:10.750Z,98972.00
2019-02-05T21:27:31.511Z,98960.00
2019-02-05T21:31:52.326Z,98965.00
2019-02-05T21:36:13.059Z,98974.00
2019-02-05T21:40:33.796Z,98964.00
2019-02-05T21:44:47.726Z,98963.00
2019-02-05T21:49:04.344Z,98962.00
2019-02-05T21:53:18.143Z,98942.00
2019-02-05T21:57:32.742Z,98956.00
2019-02-05T22:01:47.670Z,98949.00
2019-02-05T22:06:01.579Z,98951.00
2019-02-05T22:10:16.026Z,98944.00
2019-02-05T22:14:30.840Z,98947.00
2019-02-05T22:18:45.284Z,98945.00
2019-02-05T22:22:59.800Z,98945.00
2019-02-05T22:27:14.399Z,98943.00
2019-02-05T22:31:29.096Z,98941.00
2019-02-05T22:35:43.554Z,98944.00
2019-02-05T22:44:40.633Z,98936.00
2019-02-05T22:48:55.361Z,98925.00
2019-02-05T22:53:10.066Z,98938.00
2019-02-05T22:57:24.760Z,98938.00
2019-02-05T23:01:46.148Z,98955.00
2019-02-05T23:06:28.728Z,98956.00
2019-02-05T23:11:11.665Z,98944.00
2019-02-05T23:15:32.623Z,98932.00
2019-02-05T23:19:53.502Z,98933.00
2019-02-05T23:23:54.745Z,98921.00
2019-02-05T23:28:15.904Z,98913.00
2019-02-05T23:32:37.076Z,98913.00
2019-02-05T23:36:58.024Z,98921.00
2019-02-05T23:41:18.749Z,98927.00
2019-02-05T23:45:33.010Z,98916.00
2019-02-05T23:49:47.821Z,98900.00
2019-02-05T23:54:02.199Z,98912.00
2019-02-05T23:58:16.738Z,98905.00
